Latest Weather Observations for Bulman

IDD60801

Issued at 7:31 am CST Monday 30 March 2015 (issued every 30 minutes, with the page automatically refreshed every 10 minutes)

About weather observations | Map of weather stations | Latest weather observations for NT | Other Formats
Station Details ID: 014627 Name: BULMAN Lat: -13.67 Lon: 134.34 Height: 103.4 m
Data from the previous 72 hours. | See also: Recent months for locations in Northern Territory
Date/Time
CST
Temp
°C
App
Temp
°C
Dew
Point
Rel
Hum
%
Delta-T
°C
Wind Press
QNH
hPa
Press
MSL
hPa
Rain
since 9 am
mm
Dir
 
Spd
km/h
Gust
km/h
Spd
kts
Gust
kts
30/07:30am 23.2 28.5 23.0 99 0.1 CALM 0 0 0 0 1014.3 1013.6 0.0
30/07:00am 21.9 26.4 21.6 98 0.2 CALM 0 0 0 0 1014.0 1013.3 0.0
30/06:30am 21.6 25.9 21.1 97 0.3 CALM 0 0 0 0 1013.4 1012.7 0.0
30/06:00am 21.7 26.0 21.2 97 0.3 CALM 0 0 0 0 1012.9 1012.2 0.0
30/05:30am 21.8 26.2 21.3 97 0.3 CALM 0 0 0 0 1012.8 1012.1 0.0
30/05:00am 21.8 26.2 21.3 97 0.3 CALM 0 0 0 0 1012.6 1011.9 0.0
30/04:30am 22.1 26.6 21.6 97 0.3 CALM 0 0 0 0 1012.2 1011.5 0.0
30/04:00am 22.1 26.5 21.4 96 0.5 CALM 0 0 0 0 1012.2 1011.5 0.0
30/03:30am 22.4 27.0 21.7 96 0.5 CALM 0 0 0 0 1012.2 1011.5 0.0
30/03:00am 22.6 27.3 21.9 96 0.5 CALM 0 0 0 0 1012.3 1011.6 0.0
30/02:30am 22.7 27.4 22.0 96 0.5 CALM 0 0 0 0 1012.6 1011.9 0.0
30/02:00am 23.1 28.0 22.4 96 0.5 CALM 0 0 0 0 1012.8 1012.1 0.0
30/01:30am 23.1 28.0 22.4 96 0.5 CALM 0 0 0 0 1013.2 1012.5 0.0
30/01:00am 23.3 28.3 22.5 95 0.5 CALM 0 2 0 1 1013.5 1012.8 0.0
30/12:30am 23.6 28.8 22.8 95 0.5 CALM 0 0 0 0 1014.1 1013.4 0.0
30/12:00am 23.9 29.0 22.7 93 0.8 CALM 0 0 0 0 1014.3 1013.6 0.0
 
Date/Time
CST
Temp
°C
App
Temp
°C
Dew
Point
Rel
Hum
%
Delta-T
°C
Wind Press
QNH
hPa
Press
MSL
hPa
Rain
since 9 am
mm
Dir
 
Spd
km/h
Gust
km/h
Spd
kts
Gust
kts
29/11:30pm 24.2 29.3 22.6 91 1.1 CALM 0 0 0 0 1014.6 1013.9 0.0
29/11:00pm 24.8 30.0 22.9 89 1.3 CALM 0 4 0 2 1014.5 1013.8 0.0
29/10:30pm 25.2 29.1 22.5 85 1.8 SE 6 9 3 5 1014.5 1013.8 0.0
29/10:00pm 25.0 29.0 22.7 87 1.6 SSE 6 7 3 4 1014.4 1013.7 0.0
29/09:30pm 25.6 29.2 22.1 81 2.3 SE 6 7 3 4 1014.1 1013.4 0.0
29/09:00pm 26.5 29.6 21.5 74 3.3 SE 7 9 4 5 1013.8 1013.1 0.0
29/08:30pm 27.4 30.6 21.2 69 4.1 ESE 6 11 3 6 1013.3 1012.6 0.0
29/08:00pm 28.6 30.7 20.1 60 5.6 ESE 9 13 5 7 1013.2 1012.5 0.0
29/07:30pm 29.4 31.3 19.7 56 6.4 E 9 20 5 11 1012.9 1012.2 0.0
29/07:00pm 30.3 32.0 19.3 51 7.2 E 9 22 5 12 1012.6 1011.9 0.0
29/06:30pm 30.9 32.3 17.9 45 8.4 E 7 11 4 6 1012.2 1011.5 0.0
29/06:00pm 32.3 32.9 17.7 41 9.4 E 11 17 6 9 1012.0 1011.3 0.0
29/05:30pm 33.2 33.5 17.0 38 10.4 E 11 17 6 9 1011.8 1011.1 0.0
29/05:00pm 33.7 33.8 17.4 37 10.5 E 13 22 7 12 1011.5 1010.8 0.0
29/04:30pm 33.8 33.6 17.5 38 10.5 E 15 24 8 13 1011.2 1010.5 0.0
29/04:00pm 33.9 34.1 17.6 38 10.5 E 13 19 7 10 1011.0 1010.3 0.0
29/03:30pm 34.3 34.8 18.3 38 10.5 E 13 20 7 11 1011.1 1010.4 0.0
29/03:00pm 34.3 34.6 18.8 40 10.2 E 15 24 8 13 1011.4 1010.7 0.0
29/02:30pm 33.8 33.6 16.6 35 11.0 ENE 13 26 7 14 1011.6 1010.9 0.0
29/02:00pm 33.7 34.4 19.7 43 9.3 ENE 15 20 8 11 1012.0 1011.3 0.0
29/01:30pm 33.4 34.6 19.8 44 9.0 E 13 20 7 11 1012.3 1011.6 0.0
29/01:00pm 32.5 33.2 19.7 46 8.5 E 15 24 8 13 1012.7 1012.0 0.0
29/12:30pm 32.6 33.4 19.1 44 8.9 E 13 24 7 13 1013.1 1012.4 0.0
29/12:00pm 32.7 35.2 22.5 55 7.0 E 13 20 7 11 1013.7 1013.0 0.0
29/11:30am 32.0 34.2 21.8 54 6.9 ESE 13 20 7 11 1014.1 1013.4 0.0
29/11:00am 31.2 33.0 21.1 55 6.8 E 13 20 7 11 1014.5 1013.8 0.0
29/10:30am 30.8 32.8 20.7 55 6.7 ENE 11 20 6 11 1014.7 1014.0 0.0
29/10:00am 29.9 33.4 22.1 63 5.3 ENE 7 11 4 6 1014.9 1014.2 0.0
29/09:30am 29.3 32.9 23.0 69 4.3 NE 9 13 5 7 1014.9 1014.2 0.0
29/09:00am 28.4 33.2 23.5 75 3.4 N 4 9 2 5 1014.5 1013.8 0.0
29/08:30am 26.9 32.1 22.9 79 2.7 CALM 0 0 0 0 1014.3 1013.6 0.0
29/08:00am 26.2 31.9 23.7 86 1.7 CALM 0 0 0 0 1014.1 1013.4 0.0
29/07:30am 23.8 29.4 23.6 99 0.1 CALM 0 6 0 3 1013.8 1013.1 0.0
29/07:00am 22.2 26.8 21.7 97 0.3 CALM 0 0 0 0 1013.4 1012.7 0.0
29/06:30am 22.3 26.9 21.8 97 0.3 CALM 0 0 0 0 1013.0 1012.3 0.0
29/06:00am 22.3 26.9 21.8 97 0.3 CALM 0 0 0 0 1012.8 1012.1 0.0
29/05:30am 22.4 27.1 21.9 97 0.3 CALM 0 0 0 0 1012.5 1011.8 0.0
29/05:00am 22.5 27.1 21.8 96 0.5 CALM 0 0 0 0 1012.3 1011.6 0.0
29/04:30am 22.6 27.3 21.9 96 0.5 CALM 0 0 0 0 1012.2 1011.5 0.0
29/04:00am 22.7 27.4 22.0 96 0.5 CALM 0 0 0 0 1012.2 1011.5 0.0
29/03:30am 22.9 27.8 22.4 97 0.3 CALM 0 0 0 0 1012.3 1011.6 0.0
29/03:00am 22.9 26.7 22.4 97 0.3 SSW 6 7 3 4 1012.4 1011.7 0.0
29/02:30am 22.9 27.7 22.2 96 0.5 CALM 0 0 0 0 1012.7 1012.0 0.0
29/02:00am 23.1 27.7 22.4 96 0.5 NNW 2 7 1 4 1013.0 1012.3 0.0
29/01:30am 23.1 28.0 22.3 95 0.5 CALM 0 0 0 0 1013.4 1012.7 0.0
29/01:00am 23.3 28.2 22.3 94 0.7 CALM 0 0 0 0 1013.5 1012.8 0.0
29/12:30am 23.4 28.3 22.4 94 0.7 CALM 0 0 0 0 1013.7 1013.0 0.0
29/12:00am 23.6 28.3 22.0 91 1.1 CALM 0 0 0 0 1014.0 1013.3 0.0
 
Date/Time
CST
Temp
°C
App
Temp
°C
Dew
Point
Rel
Hum
%
Delta-T
°C
Wind Press
QNH
hPa
Press
MSL
hPa
Rain
since 9 am
mm
Dir
 
Spd
km/h
Gust
km/h
Spd
kts
Gust
kts
28/11:30pm 23.8 28.3 21.5 87 1.5 CALM 0 0 0 0 1014.2 1013.5 0.0
28/11:00pm 24.5 28.7 21.0 81 2.3 CALM 0 6 0 3 1014.1 1013.4 0.0
28/10:30pm 25.6 29.8 21.7 79 2.6 NE 2 7 1 4 1014.1 1013.4 0.0
28/10:00pm 25.8 29.0 20.6 73 3.4 ESE 4 7 2 4 1014.1 1013.4 0.0
28/09:30pm 26.3 29.1 20.4 70 3.9 ESE 6 9 3 5 1013.9 1013.2 0.0
28/09:00pm 27.1 29.8 20.2 66 4.5 SE 6 7 3 4 1013.7 1013.0 0.0
28/08:30pm 27.3 30.3 20.9 68 4.2 SE 6 9 3 5 1013.4 1012.7 0.0
28/08:00pm 27.4 30.7 21.4 70 4.0 SE 6 7 3 4 1012.9 1012.2 0.0
28/07:30pm 28.0 31.5 21.8 69 4.2 ESE 6 7 3 4 1012.3 1011.6 0.0
28/07:00pm 29.0 32.9 22.5 68 4.4 ESE 6 7 3 4 1012.0 1011.3 0.0
28/06:30pm 30.5 33.6 21.0 57 6.4 SE 6 13 3 7 1011.7 1011.0 0.0
28/06:00pm 31.8 34.3 21.0 52 7.3 ESE 9 15 5 8 1011.2 1010.5 0.0
28/05:30pm 32.6 34.8 20.5 49 8.1 ESE 9 15 5 8 1011.0 1010.3 0.0
28/05:00pm 33.0 35.5 21.8 51 7.6 E 11 17 6 9 1010.8 1010.1 0.0
28/04:30pm 32.3 34.9 21.2 52 7.5 E 9 15 5 8 1010.7 1010.0 0.0
28/04:00pm 33.6 36.5 21.7 49 8.1 ESE 9 17 5 9 1010.8 1010.1 0.0
28/03:30pm 34.2 36.6 21.6 47 8.6 E 11 20 6 11 1010.9 1010.2 0.0
28/03:00pm 33.8 36.8 21.9 49 8.1 NE 9 17 5 9 1011.1 1010.4 0.0
28/02:30pm 32.4 35.5 22.2 55 7.0 ESE 9 17 5 9 1011.5 1010.8 0.0
28/02:00pm 32.8 35.4 22.0 53 7.4 E 11 22 6 12 1011.8 1011.1 0.0
28/01:30pm 33.3 35.3 20.8 48 8.4 NNE 11 19 6 10 1012.2 1011.5 0.0
28/01:00pm 33.4 36.4 21.9 51 7.9 NNE 9 17 5 9 1012.7 1012.0 0.0
28/12:30pm 32.5 35.4 21.0 50 7.7 NNE 7 15 4 8 1013.3 1012.6 0.0
28/12:00pm 31.7 33.4 20.9 52 7.3 ENE 13 19 7 10 1013.6 1012.9 0.0
28/11:30am 31.7 34.1 20.9 52 7.2 N 9 13 5 7 1013.9 1013.2 0.0
28/11:00am 31.2 34.2 21.9 57 6.3 NNE 9 15 5 8 1014.2 1013.5 0.0
28/10:30am 30.6 34.2 23.0 64 5.2 NE 9 28 5 15 1014.4 1013.7 0.0
28/10:00am 29.3 33.2 23.0 69 4.3 NNE 7 11 4 6 1014.6 1013.9 0.0
28/09:30am 28.5 32.3 22.7 71 4.0 N 7 9 4 5 1014.9 1014.2 0.0
28/09:00am 27.7 32.2 22.9 75 3.3 NNE 4 7 2 4 1014.9 1014.2 0.2
28/08:30am 26.3 32.3 24.3 89 1.4 CALM 0 0 0 0 1014.5 1013.8 0.2
28/08:00am 24.7 30.3 23.5 93 0.8 CALM 0 0 0 0 1014.3 1013.6 0.2
28/07:30am 23.0 28.2 22.8 99 0.1 CALM 0 0 0 0 1013.8 1013.1 0.2
28/07:00am 21.9 26.4 21.6 98 0.2 CALM 0 0 0 0 1013.5 1012.8 0.2
28/06:30am 21.9 26.4 21.6 98 0.2 CALM 0 6 0 3 1013.0 1012.3 0.2
28/06:00am 21.9 26.4 21.6 98 0.2 CALM 0 0 0 0 1012.7 1012.0 0.2
28/05:30am 21.9 26.3 21.4 97 0.3 CALM 0 0 0 0 1012.5 1011.8 0.2
28/05:00am 21.9 26.3 21.4 97 0.3 CALM 0 0 0 0 1012.2 1011.5 0.2
28/04:30am 22.1 26.6 21.6 97 0.3 CALM 0 0 0 0 1012.0 1011.3 0.2
28/04:00am 22.2 26.8 21.7 97 0.3 CALM 0 0 0 0 1011.8 1011.1 0.2
28/03:30am 22.4 27.1 21.9 97 0.3 CALM 0 0 0 0 1012.0 1011.3 0.2
28/03:00am 22.7 27.4 22.0 96 0.5 CALM 0 0 0 0 1012.3 1011.6 0.2
28/02:30am 22.8 27.7 22.3 97 0.3 CALM 0 4 0 2 1012.7 1012.0 0.2
28/02:00am 23.0 28.0 22.5 97 0.3 CALM 0 0 0 0 1013.0 1012.3 0.2
28/01:30am 23.2 28.2 22.5 96 0.5 CALM 0 0 0 0 1013.1 1012.4 0.2
28/01:00am 23.5 28.7 22.8 96 0.5 CALM 0 0 0 0 1013.4 1012.7 0.2
28/12:30am 24.0 29.4 23.3 96 0.5 CALM 0 0 0 0 1013.7 1013.0 0.2
28/12:00am 24.1 29.5 23.2 95 0.6 CALM 0 0 0 0 1013.9 1013.2 0.2
 
Date/Time
CST
Temp
°C
App
Temp
°C
Dew
Point
Rel
Hum
%
Delta-T
°C
Wind Press
QNH
hPa
Press
MSL
hPa
Rain
since 9 am
mm
Dir
 
Spd
km/h
Gust
km/h
Spd
kts
Gust
kts
27/11:30pm 24.3 29.0 23.4 95 0.6 SSW 4 7 2 4 1014.2 1013.5 0.2
27/11:00pm 24.5 30.1 23.6 95 0.6 CALM 0 0 0 0 1014.3 1013.6 0.2
27/10:30pm 24.7 30.4 23.7 94 0.7 CALM 0 0 0 0 1014.6 1013.9 0.2
27/10:00pm 25.3 31.1 23.9 92 1.0 CALM 0 0 0 0 1014.6 1013.9 0.2
27/09:30pm 25.6 30.8 23.6 89 1.4 ENE 2 9 1 5 1014.4 1013.7 0.2
27/09:00pm 25.8 31.4 24.2 91 1.1 ENE 2 7 1 4 1014.3 1013.6 0.2
27/08:30pm 26.2 31.7 24.6 91 1.1 SSW 4 6 2 3 1014.0 1013.3 0.2
27/08:00pm 26.6 32.6 24.3 87 1.6 CALM 0 0 0 0 1013.8 1013.1 0.2
27/07:30pm 27.5 32.2 23.9 81 2.5 SSW 6 6 3 3 1013.5 1012.8 0.2
27/07:00pm 28.6 32.9 23.3 73 3.6 NE 6 6 3 3 1013.1 1012.4 0.2
27/06:30pm 30.2 33.2 21.3 59 6.0 NNE 7 11 4 6 1012.9 1012.2 0.2
27/06:00pm 31.7 33.5 20.3 50 7.6 NE 11 19 6 10 1012.3 1011.6 0.2
27/05:30pm 32.9 36.0 21.4 50 7.8 ENE 7 11 4 6 1011.9 1011.2 0.2
27/05:00pm 33.3 35.5 21.1 48 8.2 NE 11 15 6 8 1011.7 1011.0 0.2
27/04:30pm 33.4 35.5 20.9 48 8.4 NNE 11 17 6 9 1011.4 1010.7 0.2
27/04:00pm 33.4 36.9 22.2 52 7.7 S 7 13 4 7 1011.7 1011.0 0.2
27/03:30pm 33.5 36.7 22.3 52 7.7 N 9 15 5 8 1011.9 1011.2 0.2
27/03:00pm 32.1 35.4 21.9 54 6.9 NNE 7 11 4 6 1012.2 1011.5 0.2
27/02:30pm 32.8 35.5 21.3 50 7.8 N 9 15 5 8 1012.5 1011.8 0.2
27/02:00pm 32.7 35.8 22.2 54 7.2 NE 9 17 5 9 1012.8 1012.1 0.2
27/01:30pm 32.5 36.3 24.0 61 5.9 ENE 11 17 6 9 1013.3 1012.6 0.2
27/01:00pm 31.6 35.4 23.4 61 5.7 SE 9 17 5 9 1014.0 1013.3 0.2
27/12:30pm 31.8 35.9 23.9 63 5.5 E 9 13 5 7 1014.5 1013.8 0.2
27/12:00pm 31.0 35.2 24.1 66 4.8 S 9 17 5 9 1014.9 1014.2 0.2
27/11:30am 30.4 34.7 24.3 70 4.3 SSE 9 17 5 9 1015.3 1014.6 0.2
27/11:00am 29.6 34.2 24.7 75 3.4 S 9 15 5 8 1015.8 1015.1 0.2
27/10:30am 28.7 32.7 23.8 75 3.4 SW 9 17 5 9 1016.2 1015.5 0.2
27/10:00am 27.3 31.3 23.7 81 2.5 SSE 9 15 5 8 1016.6 1015.8 0.0
27/09:30am 26.6 30.7 23.9 85 1.9 S 9 15 5 8 1016.6 1015.8 0.0
27/09:00am 25.5 29.3 23.4 88 1.4 S 9 15 5 8 1016.4 1015.6 17.2
27/08:30am 25.2 29.5 23.6 91 1.1 SE 7 11 4 6 1015.9 1015.2 17.2
27/08:00am 25.5 30.0 23.6 89 1.3 ESE 6 7 3 4 1015.2 1014.5 17.2

Other Formats:

Comma delimited format used in spreadsheet applications
http://www.bom.gov.au/fwo/IDD60801/IDD60801.94143.axf

JavaScript Object Notation format (JSON) in row-major order
http://www.bom.gov.au/fwo/IDD60801/IDD60801.94143.json